Terminal Aerodrome Forecast
Issued by NWS

Home | Current Version | Previous Version | Text Only | Print | Product List | Glossary On
Versions: 1 2 3 4 5 6 7 8 9 10 11 12 13 14 15 16
000
FTUS45 KPSR 280300 AAB
TAFIPL
TAF AMD
KIPL 280356Z 2804/2824 VRB04KT P6SM SKC
     FM280600 28006KT P6SM SKC
     FM281800 33007KT P6SM SKC=

USA.gov is the U.S. government's official web portal to all federal, state and local government web resources and services.